Time;durP1;ratioP1;P1;durP2;ratioP2;P2;SDS_P1;SDS_P2;PMS_P1;PMS_P2;Temp;Humidity;BMP_temperature;BMP_pressure;BME280_temperature;BME280_humidity;BME280_pressure;Samples;Min_cycle;Max_cycle;Signal;HPM_P1;HPM_P2
2022/10/18 00:01:56;;;;;;;39.70;8.68;;;;;;;21.29;100.00;98808.75;5008076;28;20132;-57
2022/10/18 00:04:21;;;;;;;36.45;9.38;;;;;;;20.65;100.00;98798.25;5011219;28;20529;-58
2022/10/18 00:06:46;;;;;;;38.55;8.65;;;;;;;20.57;100.00;98791.63;5008081;28;20080;-58
2022/10/18 00:09:12;;;;;;;37.67;8.52;;;;;;;20.29;100.00;98791.84;5010121;28;20180;-61
2022/10/18 00:11:38;;;;;;;42.28;9.50;;;;;;;20.01;100.00;98797.19;5009694;28;20063;-58
2022/10/18 00:14:04;;;;;;;35.10;8.80;;;;;;;20.11;100.00;98800.09;5009534;28;20022;-59
2022/10/18 00:16:29;;;;;;;40.72;8.90;;;;;;;19.70;100.00;98808.94;5009377;28;20070;-59
2022/10/18 00:18:54;;;;;;;37.33;8.73;;;;;;;19.55;100.00;98804.66;5014089;28;20029;-59
2022/10/18 00:21:22;;;;;;;31.67;7.75;;;;;;;20.32;100.00;98803.06;5013584;28;20107;-60
2022/10/18 00:23:49;;;;;;;43.47;9.38;;;;;;;20.52;100.00;98798.22;5011379;28;20121;-58
2022/10/18 00:26:23;;;;;;;32.70;8.40;;;;;;;19.87;100.00;98809.66;5014858;28;20171;-58
2022/10/18 00:28:55;;;;;;;40.03;9.25;;;;;;;19.92;100.00;98804.91;5011744;28;20538;-57
2022/10/18 00:31:27;;;;;;;38.47;8.57;;;;;;;19.61;100.00;98812.19;5008299;28;20033;-57
2022/10/18 00:33:54;;;;;;;44.55;9.25;;;;;;;19.91;100.00;98814.66;5013229;28;20026;-60
2022/10/18 00:36:20;;;;;;;34.28;8.25;;;;;;;19.97;100.00;98813.41;5011341;28;20120;-60
2022/10/18 00:38:47;;;;;;;37.88;8.48;;;;;;;19.98;100.00;98812.47;5013133;28;20128;-58
2022/10/18 00:41:18;;;;;;;38.78;8.48;;;;;;;20.12;100.00;98807.06;5011083;28;20077;-57
2022/10/18 00:44:00;;;;;;;37.50;8.50;;;;;;;20.14;100.00;98805.16;5010574;28;20029;-57
2022/10/18 00:46:31;;;;;;;41.55;8.38;;;;;;;19.72;100.00;98804.44;5008385;28;20281;-57
2022/10/18 00:48:59;;;;;;;47.45;9.82;;;;;;;19.63;100.00;98808.50;5007173;28;20139;-58
2022/10/18 00:51:30;;;;;;;40.33;8.60;;;;;;;19.31;100.00;98809.75;5011688;28;20041;-59
2022/10/18 00:53:56;;;;;;;38.00;9.18;;;;;;;19.44;100.00;98808.84;5014609;28;20566;-58
2022/10/18 00:56:21;;;;;;;37.33;8.60;;;;;;;19.99;100.00;98812.34;5011772;28;20030;-58
2022/10/18 00:58:47;;;;;;;42.47;8.98;;;;;;;19.05;100.00;98799.03;5010602;28;20057;-59
2022/10/18 01:01:12;;;;;;;50.17;8.98;;;;;;;19.38;100.00;98793.38;5008610;28;20470;-58
2022/10/18 01:03:39;;;;;;;40.85;8.65;;;;;;;19.99;100.00;98806.22;5011190;28;20067;-58
2022/10/18 01:06:07;;;;;;;38.75;8.02;;;;;;;20.01;100.00;98794.56;5011293;28;20041;-58
2022/10/18 01:08:56;;;;;;;41.33;8.38;;;;;;;20.27;100.00;98799.88;5008804;28;20036;-57
2022/10/18 01:11:34;;;;;;;43.28;8.20;;;;;;;19.87;100.00;98796.44;5007834;28;20075;-57
2022/10/18 01:14:04;;;;;;;37.75;7.97;;;;;;;19.88;100.00;98804.28;5011108;28;20035;-58
2022/10/18 01:16:36;;;;;;;44.65;8.57;;;;;;;19.65;100.00;98798.69;5013183;28;20034;-57
2022/10/18 01:19:11;;;;;;;39.53;7.68;;;;;;;20.01;100.00;98799.00;5007750;28;20025;-58
2022/10/18 01:21:46;;;;;;;40.50;8.23;;;;;;;20.01;100.00;98796.34;5009354;28;20702;-59
2022/10/18 01:24:21;;;;;;;38.88;9.35;;;;;;;18.82;100.00;98792.53;5011626;28;20040;-57
2022/10/18 01:27:11;;;;;;;32.70;8.18;;;;;;;19.66;100.00;98788.94;5011339;28;20107;-58
2022/10/18 01:29:48;;;;;;;47.60;9.48;;;;;;;19.83;100.00;98794.00;5011635;28;20076;-59
2022/10/18 01:32:39;;;;;;;40.58;8.23;;;;;;;19.91;100.00;98787.34;5014918;28;20049;-60
2022/10/18 01:35:12;;;;;;;34.17;8.30;;;;;;;19.70;100.00;98789.56;5005769;28;20079;-58
2022/10/18 01:37:42;;;;;;;46.15;9.27;;;;;;;19.79;100.00;98783.72;5012671;28;20769;-57
2022/10/18 01:40:09;;;;;;;42.65;8.30;;;;;;;20.09;100.00;98791.41;5014760;28;20025;-58
2022/10/18 01:42:34;;;;;;;37.72;8.90;;;;;;;20.29;100.00;98782.13;5015181;28;20104;-59
2022/10/18 01:45:02;;;;;;;39.42;9.27;;;;;;;19.66;100.00;98783.63;5018778;28;20128;-61
2022/10/18 01:47:27;;;;;;;35.13;8.73;;;;;;;20.07;100.00;98782.72;5010371;28;20515;-57
2022/10/18 01:50:01;;;;;;;48.38;9.52;;;;;;;20.06;100.00;98783.66;5014999;28;20712;-58
2022/10/18 01:52:27;;;;;;;36.20;9.10;;;;;;;19.85;100.00;98788.63;5012995;28;20037;-57
2022/10/18 01:54:54;;;;;;;43.70;10.80;;;;;;;19.63;100.00;98789.16;5012603;28;20028;-58
2022/10/18 01:57:32;;;;;;;36.33;8.98;;;;;;;19.76;100.00;98779.47;5013042;28;20132;-58
2022/10/18 02:00:11;;;;;;;50.25;10.23;;;;;;;19.80;100.00;98769.53;5015036;28;20837;-58
2022/10/18 02:03:04;;;;;;;41.28;9.88;;;;;;;19.38;100.00;98768.72;5014292;28;20049;-57
2022/10/18 02:05:37;;;;;;;;;;;;;;;19.60;100.00;98774.31;5015434;28;20073;-57
2022/10/18 02:08:17;;;;;;;51.17;10.50;;;;;;;19.64;100.00;98773.16;5014285;28;19909;-58
2022/10/18 02:10:54;;;;;;;34.90;9.32;;;;;;;19.58;100.00;98775.38;5011073;28;20045;-58
2022/10/18 02:13:22;;;;;;;39.75;10.48;;;;;;;19.11;100.00;98771.34;5013429;28;20048;-58
2022/10/18 02:15:53;;;;;;;43.33;9.70;;;;;;;19.32;100.00;98775.25;5017779;28;20499;-57
2022/10/18 02:18:34;;;;;;;44.28;10.40;;;;;;;19.03;100.00;98772.69;5013423;28;20033;-58
2022/10/18 02:21:01;;;;;;;44.33;9.23;;;;;;;19.65;100.00;98780.16;5014733;28;20274;-58
2022/10/18 02:23:27;;;;;;;39.22;9.45;;;;;;;19.48;100.00;98774.25;5012437;28;20120;-62
2022/10/18 02:25:53;;;;;;;38.92;9.20;;;;;;;19.96;100.00;98774.63;5014257;28;20041;-62
2022/10/18 02:28:18;;;;;;;34.63;8.40;;;;;;;20.28;100.00;98775.09;5013378;28;20036;-59
2022/10/18 02:30:57;;;;;;;41.72;9.40;;;;;;;19.36;100.00;98782.03;5011506;28;20132;-58
2022/10/18 02:33:28;;;;;;;48.15;10.65;;;;;;;18.49;100.00;98777.81;5012759;28;20485;-56
2022/10/18 02:36:03;;;;;;;36.80;8.77;;;;;;;19.29;100.00;98783.38;5013764;28;20065;-57
2022/10/18 02:38:30;;;;;;;40.20;8.88;;;;;;;19.28;100.00;98789.66;5014508;28;20483;-58
2022/10/18 02:40:55;;;;;;;43.60;9.75;;;;;;;19.40;100.00;98782.69;5015259;28;20057;-60
2022/10/18 02:43:23;;;;;;;46.15;10.02;;;;;;;19.75;100.00;98785.72;5015529;28;20022;-59
2022/10/18 02:45:49;;;;;;;41.15;9.80;;;;;;;19.03;100.00;98779.78;5011622;28;20128;-56
2022/10/18 02:48:14;;;;;;;48.03;9.77;;;;;;;19.39;100.00;98781.00;5012057;28;20057;-57
2022/10/18 02:50:39;;;;;;;33.13;8.13;;;;;;;19.76;100.00;98783.94;5010836;28;20045;-58
2022/10/18 02:53:04;;;;;;;31.33;7.65;;;;;;;19.82;100.00;98773.75;5011822;28;20068;-58
2022/10/18 02:55:30;;;;;;;47.30;9.77;;;;;;;19.73;100.00;98784.97;5014377;28;20503;-58
2022/10/18 02:57:55;;;;;;;31.33;7.60;;;;;;;19.65;100.00;98787.25;5012952;28;20109;-56
2022/10/18 03:00:20;;;;;;;41.38;8.63;;;;;;;19.34;100.00;98783.09;5011239;28;20033;-56
2022/10/18 03:02:47;;;;;;;33.30;8.00;;;;;;;19.18;100.00;98784.06;5015478;28;20068;-59
2022/10/18 03:05:13;;;;;;;43.63;9.10;;;;;;;18.65;100.00;98786.47;5012005;28;20713;-56
2022/10/18 03:07:38;;;;;;;44.38;9.13;;;;;;;19.01;100.00;98790.44;5014007;28;20689;-56
2022/10/18 03:10:04;;;;;;;44.75;9.77;;;;;;;18.66;100.00;98782.88;5013698;28;20033;-57
2022/10/18 03:12:29;;;;;;;45.50;8.45;;;;;;;19.45;100.00;98781.44;5014607;28;20034;-56
2022/10/18 03:14:55;;;;;;;41.85;9.00;;;;;;;19.41;100.00;98785.25;5015542;28;20017;-58
2022/10/18 03:17:20;;;;;;;39.15;8.13;;;;;;;19.01;100.00;98787.78;5012931;28;20045;-56
2022/10/18 03:19:45;;;;;;;53.92;9.95;;;;;;;18.43;100.00;98788.72;5011797;28;20030;-56
2022/10/18 03:22:11;;;;;;;40.45;8.43;;;;;;;18.95;100.00;98780.25;5010967;28;20068;-58
2022/10/18 03:24:36;;;;;;;39.67;8.63;;;;;;;18.77;100.00;98786.66;5013305;28;20053;-57
2022/10/18 03:27:01;;;;;;;49.42;9.57;;;;;;;18.50;100.00;98779.47;5014337;28;20038;-58
2022/10/18 03:29:27;;;;;;;33.85;8.13;;;;;;;18.52;100.00;98774.94;5010680;28;20037;-58
2022/10/18 03:31:52;;;;;;;45.35;9.32;;;;;;;18.53;100.00;98776.66;5010380;28;20037;-59
2022/10/18 03:34:18;;;;;;;29.55;8.02;;;;;;;18.01;100.00;98779.78;5010367;28;20060;-58
2022/10/18 03:36:43;;;;;;;41.53;9.32;;;;;;;18.34;100.00;98776.06;5011610;28;20034;-61
2022/10/18 03:39:11;;;;;;;45.50;9.23;;;;;;;18.17;100.00;98774.44;5010047;28;20120;-57
2022/10/18 03:41:36;;;;;;;38.30;8.32;;;;;;;18.44;100.00;98772.78;5012025;28;20065;-58
2022/10/18 03:44:01;;;;;;;44.15;8.48;;;;;;;18.91;100.00;98776.09;5014264;28;20083;-60
2022/10/18 03:46:26;;;;;;;37.40;8.73;;;;;;;18.78;100.00;98775.13;5014473;28;20128;-59
2022/10/18 03:48:52;;;;;;;46.05;8.82;;;;;;;18.21;100.00;98770.69;5012038;28;20054;-61
2022/10/18 03:51:17;;;;;;;42.33;8.77;;;;;;;18.90;100.00;98769.13;5009916;28;20148;-58
2022/10/18 03:53:42;;;;;;;38.85;8.48;;;;;;;19.33;100.00;98769.00;5012647;28;20136;-58
2022/10/18 03:56:08;;;;;;;54.45;9.73;;;;;;;19.00;100.00;98764.94;5011832;28;20177;-58
2022/10/18 03:58:33;;;;;;;38.40;8.43;;;;;;;19.25;100.00;98766.03;5012118;28;20095;-59
2022/10/18 04:00:58;;;;;;;44.60;8.82;;;;;;;18.99;100.00;98765.91;5011230;28;20203;-60
2022/10/18 04:03:24;;;;;;;34.95;8.07;;;;;;;19.80;100.00;98759.78;5011778;28;20108;-57
2022/10/18 04:05:49;;;;;;;37.97;7.93;;;;;;;18.95;100.00;98761.75;5011599;28;20661;-58
2022/10/18 04:08:15;;;;;;;49.65;9.52;;;;;;;18.97;100.00;98759.84;5012272;28;20762;-58
2022/10/18 04:10:41;;;;;;;39.42;8.30;;;;;;;19.46;100.00;98755.84;5010262;28;20858;-58
2022/10/18 04:13:07;;;;;;;44.83;9.15;;;;;;;19.41;100.00;98758.78;5010829;28;20034;-57
2022/10/18 04:15:32;;;;;;;43.75;9.25;;;;;;;19.03;100.00;98754.16;5009725;28;20095;-57
2022/10/18 04:17:59;;;;;;;42.88;9.00;;;;;;;19.36;100.00;98745.00;5013373;28;20048;-59
2022/10/18 04:20:25;;;;;;;45.35;8.48;;;;;;;19.53;100.00;98757.13;5010105;28;20046;-59
2022/10/18 04:22:50;;;;;;;44.75;9.43;;;;;;;19.48;100.00;98759.22;5008291;28;20052;-58
2022/10/18 04:25:16;;;;;;;43.85;9.60;;;;;;;19.04;100.00;98753.25;5013072;28;20038;-58
2022/10/18 04:27:42;;;;;;;39.33;8.38;;;;;;;19.49;100.00;98749.50;5012181;28;20017;-60
2022/10/18 04:30:08;;;;;;;37.00;8.10;;;;;;;19.48;100.00;98747.81;5008991;28;20802;-58
2022/10/18 04:32:34;;;;;;;45.70;8.88;;;;;;;20.13;100.00;98745.22;5008887;28;20530;-58
2022/10/18 04:35:00;;;;;;;35.20;8.38;;;;;;;19.44;100.00;98745.34;5011453;28;20100;-57
2022/10/18 04:37:26;;;;;;;40.35;8.30;;;;;;;19.94;100.00;98745.63;5010852;28;20040;-60
2022/10/18 04:39:51;;;;;;;38.85;8.55;;;;;;;19.50;100.00;98749.41;5012553;28;20026;-59
2022/10/18 04:42:16;;;;;;;35.65;8.73;;;;;;;18.84;100.00;98749.22;5008843;28;20044;-58
2022/10/18 04:44:41;;;;;;;42.38;7.45;;;;;;;20.22;100.00;98755.19;5011390;28;20033;-58
2022/10/18 04:47:07;;;;;;;44.80;8.82;;;;;;;18.87;100.00;98753.44;5010786;28;20042;-57
2022/10/18 04:49:32;;;;;;;33.92;8.25;;;;;;;18.65;100.00;98754.75;5011294;28;20077;-60
2022/10/18 04:51:57;;;;;;;43.72;9.45;;;;;;;18.50;100.00;98753.06;5009631;28;20137;-58
2022/10/18 04:54:23;;;;;;;48.20;9.40;;;;;;;19.23;100.00;98755.53;5012797;28;20068;-58
2022/10/18 04:56:48;;;;;;;43.63;9.63;;;;;;;18.85;100.00;98752.69;5010391;28;20136;-57
2022/10/18 04:59:13;;;;;;;44.92;8.63;;;;;;;19.09;100.00;98744.16;5009098;28;20025;-58
2022/10/18 05:01:39;;;;;;;53.00;9.05;;;;;;;18.83;100.00;98751.94;5013684;28;20064;-57
2022/10/18 05:04:04;;;;;;;51.78;9.70;;;;;;;18.87;100.00;98745.50;5014897;28;20497;-56
2022/10/18 05:06:29;;;;;;;32.05;8.10;;;;;;;19.30;100.00;98742.78;5016921;28;20041;-57
2022/10/18 05:08:55;;;;;;;53.78;10.15;;;;;;;19.28;100.00;98747.31;5013433;28;20029;-56
2022/10/18 05:11:20;;;;;;;34.97;8.65;;;;;;;19.66;100.00;98738.66;5013327;28;20091;-56
2022/10/18 05:13:45;;;;;;;43.15;8.70;;;;;;;19.45;100.00;98744.41;5015679;28;20651;-58
2022/10/18 05:16:11;;;;;;;41.25;9.13;;;;;;;19.00;100.00;98737.66;5013727;28;20072;-56
2022/10/18 05:18:36;;;;;;;43.88;9.18;;;;;;;18.92;100.00;98740.78;5014874;28;20124;-58
2022/10/18 05:21:01;;;;;;;39.50;9.13;;;;;;;18.53;100.00;98744.09;5016914;28;20053;-59
2022/10/18 05:23:27;;;;;;;35.00;8.27;;;;;;;19.01;100.00;98732.28;5015496;28;20022;-58
2022/10/18 05:25:52;;;;;;;41.25;9.27;;;;;;;18.61;100.00;98737.38;5015967;28;20064;-56
2022/10/18 05:28:18;;;;;;;38.60;9.15;;;;;;;18.89;100.00;98735.69;5015839;28;20029;-56
2022/10/18 05:30:43;;;;;;;38.20;8.55;;;;;;;19.49;100.00;98736.28;5015897;28;20037;-56
2022/10/18 05:33:09;;;;;;;47.22;9.45;;;;;;;19.50;100.00;98730.91;5011919;28;20025;-56
2022/10/18 05:35:34;;;;;;;36.92;9.20;;;;;;;19.07;100.00;98726.56;5013361;28;20403;-57
2022/10/18 05:38:04;;;;;;;43.60;10.73;;;;;;;19.64;100.00;98719.38;5014328;28;20018;-59
2022/10/18 05:40:31;;;;;;;70.68;17.60;;;;;;;19.95;100.00;98720.00;5013206;28;20040;-61
2022/10/18 05:42:56;;;;;;;78.75;19.58;;;;;;;20.56;100.00;98721.03;5015437;28;20033;-57
2022/10/18 05:45:21;;;;;;;49.03;10.13;;;;;;;19.16;100.00;98722.50;5015330;28;20052;-58
2022/10/18 05:47:46;;;;;;;41.17;10.02;;;;;;;20.08;100.00;98726.13;5016507;28;20030;-59
2022/10/18 05:50:12;;;;;;;36.95;8.93;;;;;;;19.72;100.00;98727.66;5014114;28;20921;-57
2022/10/18 05:52:37;;;;;;;37.97;8.82;;;;;;;19.39;100.00;98723.66;5013477;28;20121;-57
2022/10/18 05:55:03;;;;;;;43.17;9.75;;;;;;;20.21;100.00;98731.44;5014104;28;20033;-57
2022/10/18 05:57:28;;;;;;;50.83;10.38;;;;;;;19.63;100.00;98736.22;5014917;28;20030;-58
2022/10/18 05:59:53;;;;;;;55.50;10.32;;;;;;;19.82;100.00;98738.50;5013495;28;20037;-57
2022/10/18 06:02:19;;;;;;;38.53;9.23;;;;;;;19.29;100.00;98741.06;5011685;28;20709;-58
2022/10/18 06:04:44;;;;;;;52.92;9.52;;;;;;;20.06;100.00;98738.63;5013942;28;20021;-57
2022/10/18 06:07:10;;;;;;;37.72;8.68;;;;;;;19.67;100.00;98729.78;5015047;28;20811;-60
2022/10/18 06:09:36;;;;;;;53.60;10.65;;;;;;;20.12;100.00;98743.50;5014456;28;20120;-58
2022/10/18 06:12:03;;;;;;;35.40;8.30;;;;;;;19.83;100.00;98737.53;5012678;28;20042;-57
2022/10/18 06:14:28;;;;;;;37.60;8.95;;;;;;;20.06;100.00;98743.09;5012659;28;20052;-56
2022/10/18 06:16:55;;;;;;;36.92;8.95;;;;;;;20.29;100.00;98738.84;5012888;28;20694;-58
2022/10/18 06:19:21;;;;;;;37.58;7.82;;;;;;;20.76;100.00;98746.16;5015982;28;20037;-59
2022/10/18 06:21:46;;;;;;;45.33;9.32;;;;;;;20.47;100.00;98737.56;5014584;28;20037;-57
2022/10/18 06:24:12;;;;;;;43.78;9.43;;;;;;;20.03;100.00;98757.38;5012803;28;20461;-59
2022/10/18 06:26:37;;;;;;;36.67;8.60;;;;;;;19.96;100.00;98756.09;5013489;28;20049;-59
2022/10/18 06:29:02;;;;;;;30.65;7.38;;;;;;;19.98;100.00;98762.16;5011844;28;20061;-58
2022/10/18 06:31:28;;;;;;;44.85;8.90;;;;;;;19.79;100.00;98760.72;5009549;28;20149;-57
2022/10/18 06:33:55;;;;;;;50.13;9.35;;;;;;;19.87;100.00;98759.38;5011208;28;20057;-59
2022/10/18 06:36:21;;;;;;;40.33;7.85;;;;;;;21.03;100.00;98760.22;5013952;28;20133;-57
2022/10/18 06:38:47;;;;;;;37.22;8.13;;;;;;;19.61;100.00;98767.19;5015597;28;20614;-58
2022/10/18 06:41:12;;;;;;;34.58;7.05;;;;;;;20.89;100.00;98761.19;5012643;28;20038;-59
2022/10/18 06:43:38;;;;;;;34.30;8.15;;;;;;;20.13;100.00;98770.88;5010645;28;20090;-59
2022/10/18 06:46:06;;;;;;;35.70;8.65;;;;;;;19.95;100.00;98768.50;5011678;28;20041;-58
2022/10/18 06:48:34;;;;;;;33.10;7.72;;;;;;;20.06;100.00;98770.41;5013098;28;20450;-57
2022/10/18 06:51:02;;;;;;;38.95;8.50;;;;;;;20.17;100.00;98767.03;5012570;28;20034;-58
2022/10/18 06:53:30;;;;;;;37.28;8.35;;;;;;;19.83;100.00;98764.88;5011525;28;20064;-59
2022/10/18 06:56:00;;;;;;;33.55;7.30;;;;;;;20.95;100.00;98766.06;5013573;28;20034;-57
2022/10/18 06:58:25;;;;;;;41.20;9.00;;;;;;;20.28;100.00;98766.31;5014173;28;20033;-58
2022/10/18 07:00:51;;;;;;;39.65;8.80;;;;;;;19.88;100.00;98767.19;5013235;28;20409;-60
2022/10/18 07:03:16;;;;;;;48.00;9.43;;;;;;;20.03;100.00;98763.53;5012694;28;20712;-59
2022/10/18 07:05:42;;;;;;;41.28;9.05;;;;;;;20.19;100.00;98768.63;5012221;28;20057;-58
2022/10/18 07:08:07;;;;;;;37.83;8.30;;;;;;;20.13;100.00;98761.09;5013642;28;20032;-59
2022/10/18 07:10:32;;;;;;;32.33;8.05;;;;;;;19.82;100.00;98759.69;5013533;28;20038;-59
2022/10/18 07:12:58;;;;;;;33.22;8.30;;;;;;;20.78;100.00;98765.44;5014001;28;20176;-58
2022/10/18 07:15:23;;;;;;;44.45;9.13;;;;;;;20.40;100.00;98768.97;5010835;28;20021;-61
2022/10/18 07:17:49;;;;;;;35.92;7.30;;;;;;;20.71;100.00;98761.53;5014693;28;20056;-58
2022/10/18 07:20:14;;;;;;;36.35;8.38;;;;;;;20.27;100.00;98761.97;5015423;28;20033;-58
2022/10/18 07:22:40;;;;;;;32.42;8.00;;;;;;;20.77;100.00;98765.59;5013580;28;20010;-58
2022/10/18 07:25:06;;;;;;;32.08;7.97;;;;;;;20.04;100.00;98774.97;5015312;28;20449;-58
2022/10/18 07:27:39;;;;;;;45.65;8.88;;;;;;;20.39;100.00;98771.72;5010347;28;20073;-58
2022/10/18 07:30:06;;;;;;;35.85;8.25;;;;;;;20.28;100.00;98768.97;5009175;28;20112;-58
2022/10/18 07:32:32;;;;;;;38.72;8.50;;;;;;;20.73;100.00;98769.38;5011303;28;20096;-58
2022/10/18 07:34:57;;;;;;;35.08;8.43;;;;;;;20.62;100.00;98766.66;5010542;28;20369;-57
2022/10/18 07:37:22;;;;;;;34.17;7.70;;;;;;;21.09;100.00;98770.38;5011813;28;20045;-58
2022/10/18 07:39:48;;;;;;;48.38;9.13;;;;;;;21.29;100.00;98766.28;5012864;28;20511;-58
2022/10/18 07:42:13;;;;;;;38.30;8.68;;;;;;;20.54;100.00;98765.34;5012148;28;20399;-58
2022/10/18 07:44:38;;;;;;;34.00;7.45;;;;;;;22.00;100.00;98759.25;5009992;28;20092;-58
2022/10/18 07:47:04;;;;;;;31.02;7.45;;;;;;;21.50;100.00;98756.75;5010845;28;20132;-58
2022/10/18 07:49:29;;;;;;;36.33;7.93;;;;;;;21.53;100.00;98759.19;5011114;28;20076;-58
2022/10/18 07:51:55;;;;;;;39.33;8.38;;;;;;;22.32;100.00;98766.59;5008968;28;20146;-59
2022/10/18 07:54:21;;;;;;;34.97;7.60;;;;;;;22.32;100.00;98769.25;5010362;28;20491;-59
2022/10/18 07:56:47;;;;;;;39.05;8.18;;;;;;;22.07;100.00;98762.28;5010850;28;20041;-58
2022/10/18 07:59:12;;;;;;;32.65;7.85;;;;;;;23.44;100.00;98765.69;5009863;28;20048;-58
2022/10/18 08:01:38;;;;;;;29.40;7.40;;;;;;;23.21;100.00;98770.22;5010680;28;20041;-58
2022/10/18 08:04:03;;;;;;;33.72;7.50;;;;;;;23.04;100.00;98760.09;5013700;28;20037;-61
2022/10/18 08:06:28;;;;;;;31.25;8.25;;;;;;;24.00;100.00;98756.63;5011272;28;20049;-61
2022/10/18 08:08:54;;;;;;;35.85;7.53;;;;;;;23.94;100.00;98751.81;5014664;28;20072;-60
2022/10/18 08:11:24;;;;;;;31.83;7.88;;;;;;;24.28;100.00;98754.31;5011832;28;20133;-57
2022/10/18 08:13:51;;;;;;;32.25;7.28;;;;;;;24.77;100.00;98758.06;5009824;28;20033;-59
2022/10/18 08:16:19;;;;;;;33.17;7.47;;;;;;;23.32;100.00;98764.00;5013153;28;20707;-57
2022/10/18 08:18:44;;;;;;;34.47;7.95;;;;;;;22.91;100.00;98763.69;5014187;28;20039;-58
2022/10/18 08:21:12;;;;;;;32.55;7.65;;;;;;;24.01;100.00;98769.00;5013660;28;20118;-58
2022/10/18 08:23:40;;;;;;;30.02;7.18;;;;;;;24.28;100.00;98761.44;5012510;28;20025;-59
2022/10/18 08:26:15;;;;;;;37.40;7.43;;;;;;;24.06;100.00;98763.28;5010192;28;20045;-58
2022/10/18 08:28:41;;;;;;;27.58;6.78;;;;;;;24.22;100.00;98768.13;5012543;28;20325;-58
2022/10/18 08:31:10;;;;;;;30.20;6.78;;;;;;;25.14;100.00;98775.31;5012180;28;20756;-59
2022/10/18 08:33:36;;;;;;;25.23;6.00;;;;;;;25.98;100.00;98777.56;5012514;28;20176;-58
2022/10/18 08:36:04;;;;;;;28.45;6.57;;;;;;;26.84;100.00;98790.88;5009400;28;20588;-58
2022/10/18 08:38:30;;;;;;;35.95;6.72;;;;;;;28.70;100.00;98795.69;5016474;28;20067;-60
2022/10/18 08:40:59;;;;;;;31.52;6.80;;;;;;;28.49;100.00;98792.50;5017304;28;20042;-59
2022/10/18 08:43:35;;;;;;;39.05;7.55;;;;;;;29.15;99.25;98799.13;5014336;28;20331;-57
2022/10/18 08:46:01;;;;;;;26.65;6.53;;;;;;;29.09;100.00;98805.13;5015467;28;20103;-58
2022/10/18 08:48:48;;;;;;;34.42;7.10;;;;;;;30.16;84.26;98801.69;5018115;28;20029;-59
2022/10/18 08:51:38;;;;;;;25.27;6.38;;;;;;;30.41;92.39;98798.97;5013466;28;20108;-58
2022/10/18 08:54:32;;;;;;;27.50;6.80;;;;;;;28.84;87.97;98802.34;5014997;28;20033;-58
2022/10/18 08:57:00;;;;;;;20.40;5.90;;;;;;;28.58;98.77;98797.81;4997389;28;20041;-59
2022/10/18 08:59:33;;;;;;;26.02;6.28;;;;;;;28.78;90.59;98785.03;5014262;28;20021;-58
2022/10/18 09:02:17;;;;;;;24.83;5.88;;;;;;;27.84;85.38;98778.44;5013062;28;20048;-61
2022/10/18 09:04:46;;;;;;;21.73;5.70;;;;;;;30.05;87.09;98791.25;5014790;28;20042;-59
2022/10/18 09:07:36;;;;;;;20.02;5.90;;;;;;;28.42;90.28;98778.91;5015798;28;20041;-59
2022/10/18 09:10:39;;;;;;;19.80;6.07;;;;;;;28.67;91.55;98795.19;5018581;28;20029;-58
2022/10/18 09:13:34;;;;;;;23.27;5.68;;;;;;;30.33;77.70;98789.06;5014536;28;20655;-58
2022/10/18 09:16:06;;;;;;;20.63;5.35;;;;;;;32.35;69.26;98792.94;5015996;28;20041;-58
2022/10/18 09:18:56;;;;;;;21.02;5.35;;;;;;;30.86;70.29;98793.97;5013939;28;20179;-58
2022/10/18 09:21:37;;;;;;;19.67;5.57;;;;;;;31.17;68.08;98796.75;5013494;28;20041;-59
2022/10/18 09:24:02;;;;;;;18.98;5.60;;;;;;;27.78;87.15;98773.69;5013627;28;20040;-61
2022/10/18 09:26:37;;;;;;;19.00;5.30;;;;;;;30.14;78.86;98779.50;5012078;28;20054;-62
2022/10/18 09:29:39;;;;;;;23.70;5.95;;;;;;;32.67;69.68;98782.84;5016664;28;20681;-58
2022/10/18 09:32:26;;;;;;;19.60;5.75;;;;;;;32.00;65.27;98792.56;5014854;28;20120;-59
2022/10/18 09:34:56;;;;;;;22.15;6.13;;;;;;;32.96;63.89;98791.97;5015292;28;20048;-57
2022/10/18 09:37:26;;;;;;;35.00;7.50;;;;;;;31.49;71.21;98789.56;5015260;28;20053;-57
2022/10/18 09:40:01;;;;;;;28.20;6.65;;;;;;;30.52;70.73;98777.09;5016790;28;20025;-58
2022/10/18 09:42:36;;;;;;;21.55;5.57;;;;;;;28.52;80.89;98771.56;5011585;28;20045;-60
2022/10/18 09:45:03;;;;;;;28.67;6.13;;;;;;;28.90;85.94;98779.38;5016189;28;20068;-59
2022/10/18 09:47:36;;;;;;;22.17;5.43;;;;;;;29.91;81.52;98783.88;5012031;28;20124;-61
2022/10/18 09:50:15;;;;;;;22.08;5.70;;;;;;;29.02;79.70;98778.06;5012901;28;20752;-60
2022/10/18 09:53:19;;;;;;;24.70;5.72;;;;;;;29.94;78.96;98789.75;5015534;28;20911;-58
2022/10/18 09:55:59;;;;;;;28.45;5.65;;;;;;;27.90;88.53;98786.88;4952327;28;20554;-58
2022/10/18 09:58:27;;;;;;;21.63;5.88;;;;;;;28.26;92.72;98787.69;5015496;28;20033;-60
2022/10/18 10:00:54;;;;;;;23.10;5.22;;;;;;;28.16;90.31;98798.50;5014655;28;20563;-59
2022/10/18 10:03:19;;;;;;;27.55;6.20;;;;;;;28.43;100.00;98794.00;5012917;28;20110;-59
2022/10/18 10:05:45;;;;;;;16.52;5.05;;;;;;;28.24;93.57;98795.03;5017939;28;20053;-60
2022/10/18 10:08:11;;;;;;;26.45;6.05;;;;;;;28.12;94.24;98799.81;5012176;28;20034;-57
2022/10/18 10:10:44;;;;;;;20.73;4.85;;;;;;;28.16;92.23;98787.78;5014643;28;20796;-58
2022/10/18 10:13:26;;;;;;;20.98;5.10;;;;;;;29.76;89.02;98789.91;5012350;28;20026;-59
2022/10/18 10:15:54;;;;;;;33.47;5.53;;;;;;;29.00;90.58;98797.03;5010311;28;20112;-58
2022/10/18 10:18:24;;;;;;;25.58;5.53;;;;;;;28.12;90.42;98794.44;5011912;28;20029;-60
2022/10/18 10:20:51;;;;;;;24.05;5.72;;;;;;;28.53;90.27;98788.56;5012176;28;20037;-57
2022/10/18 10:23:43;;;;;;;24.02;5.55;;;;;;;28.27;94.59;98782.16;5010430;28;20542;-59
2022/10/18 10:26:20;;;;;;;;;;;;;;;29.05;91.32;98787.66;5013936;28;20049;-59
2022/10/18 10:28:47;;;;;;;19.55;4.82;;;;;;;27.63;97.81;98783.28;5015347;28;19920;-60
2022/10/18 10:31:31;;;;;;;23.50;5.30;;;;;;;27.54;100.00;98786.88;5013510;28;20052;-59
2022/10/18 10:34:18;;;;;;;24.60;5.30;;;;;;;28.13;100.00;98788.09;5012917;28;20061;-59
2022/10/18 10:36:46;;;;;;;28.30;5.80;;;;;;;28.30;94.98;98788.22;5013875;28;20062;-60
2022/10/18 10:39:20;;;;;;;22.88;4.88;;;;;;;27.41;100.00;98787.25;5012479;28;20053;-58
2022/10/18 10:41:48;;;;;;;22.33;5.05;;;;;;;28.13;100.00;98788.09;5013268;28;20596;-60
2022/10/18 10:44:19;;;;;;;21.50;5.40;;;;;;;27.36;100.00;98781.50;5016589;28;20120;-59
2022/10/18 10:46:47;;;;;;;27.25;5.68;;;;;;;27.65;100.00;98778.59;5015833;28;20083;-59
2022/10/18 10:49:23;;;;;;;30.60;5.05;;;;;;;29.23;90.96;98779.53;5013227;28;20861;-60
2022/10/18 10:51:55;;;;;;;24.98;5.28;;;;;;;28.91;94.40;98787.25;5012933;28;20101;-60
2022/10/18 10:54:25;;;;;;;23.83;6.13;;;;;;;28.04;96.95;98772.94;5013013;28;20454;-59
2022/10/18 10:57:10;;;;;;;24.17;5.57;;;;;;;27.95;100.00;98782.75;5014252;28;20041;-58
2022/10/18 10:59:44;;;;;;;20.95;5.50;;;;;;;27.34;100.00;98770.91;5013279;28;20084;-57
2022/10/18 11:02:28;;;;;;;27.45;5.75;;;;;;;27.62;100.00;98768.19;5010818;28;20045;-59
2022/10/18 11:04:55;;;;;;;28.80;6.00;;;;;;;27.79;100.00;98767.34;5011907;28;20586;-58
2022/10/18 11:07:32;;;;;;;18.75;5.35;;;;;;;26.72;100.00;98770.66;5010547;28;20131;-58
2022/10/18 11:10:08;;;;;;;29.95;6.15;;;;;;;26.99;100.00;98767.16;5013935;28;20044;-58
2022/10/18 11:12:44;;;;;;;22.98;5.07;;;;;;;27.45;100.00;98762.66;5012930;28;20056;-59
2022/10/18 11:15:10;;;;;;;34.80;5.70;;;;;;;26.41;100.00;98767.34;5014384;28;20441;-57
2022/10/18 11:17:45;;;;;;;25.75;5.40;;;;;;;26.59;100.00;98765.59;5008967;28;20036;-57
2022/10/18 11:20:26;;;;;;;33.00;5.60;;;;;;;25.71;100.00;98757.69;5011647;28;20048;-57
2022/10/18 11:23:05;;;;;;;22.35;5.03;;;;;;;25.54;100.00;98764.59;5011171;28;20061;-57
2022/10/18 11:26:01;;;;;;;23.52;5.50;;;;;;;26.24;100.00;98764.41;5013451;28;20680;-57
2022/10/18 11:28:35;;;;;;;22.08;5.43;;;;;;;24.94;100.00;98763.72;5012173;28;20135;-58
2022/10/18 11:31:32;;;;;;;23.95;5.50;;;;;;;24.65;100.00;98759.16;5014819;28;20459;-57